sensor_id;sensor_type;location;lat;lon;timestamp;P1;durP1;ratioP1;P2;durP2;ratioP2
74401;SDS011;62837;51.082;13.744;2023-05-10T00:01:05;2.40;;;0.70;;
74401;SDS011;62837;51.082;13.744;2023-05-10T00:03:36;2.70;;;0.70;;
74401;SDS011;62837;51.082;13.744;2023-05-10T00:06:08;2.40;;;0.90;;
74401;SDS011;62837;51.082;13.744;2023-05-10T00:08:38;2.70;;;0.60;;
74401;SDS011;62837;51.082;13.744;2023-05-10T00:11:09;1.70;;;0.60;;
74401;SDS011;62837;51.082;13.744;2023-05-10T00:13:40;1.60;;;0.60;;
74401;SDS011;62837;51.082;13.744;2023-05-10T00:16:10;1.10;;;0.70;;
74401;SDS011;62837;51.082;13.744;2023-05-10T00:18:41;2.00;;;0.60;;
74401;SDS011;62837;51.082;13.744;2023-05-10T00:21:12;1.50;;;0.80;;
74401;SDS011;62837;51.082;13.744;2023-05-10T00:23:43;1.60;;;0.80;;
74401;SDS011;62837;51.082;13.744;2023-05-10T00:26:13;1.30;;;0.80;;
74401;SDS011;62837;51.082;13.744;2023-05-10T00:28:45;0.70;;;0.40;;
74401;SDS011;62837;51.082;13.744;2023-05-10T00:31:16;2.00;;;0.80;;
74401;SDS011;62837;51.082;13.744;2023-05-10T00:33:46;1.80;;;1.00;;
74401;SDS011;62837;51.082;13.744;2023-05-10T00:36:17;2.70;;;0.70;;
74401;SDS011;62837;51.082;13.744;2023-05-10T00:38:48;2.30;;;0.80;;
74401;SDS011;62837;51.082;13.744;2023-05-10T00:41:19;1.60;;;0.80;;
74401;SDS011;62837;51.082;13.744;2023-05-10T00:43:50;1.30;;;0.80;;
74401;SDS011;62837;51.082;13.744;2023-05-10T00:46:20;1.40;;;0.60;;
74401;SDS011;62837;51.082;13.744;2023-05-10T00:48:52;3.00;;;1.10;;
74401;SDS011;62837;51.082;13.744;2023-05-10T00:51:23;2.20;;;1.00;;
74401;SDS011;62837;51.082;13.744;2023-05-10T00:53:54;3.90;;;0.90;;
74401;SDS011;62837;51.082;13.744;2023-05-10T00:56:26;2.20;;;0.90;;
74401;SDS011;62837;51.082;13.744;2023-05-10T00:58:57;3.40;;;0.70;;
74401;SDS011;62837;51.082;13.744;2023-05-10T01:01:28;3.90;;;1.00;;
74401;SDS011;62837;51.082;13.744;2023-05-10T01:03:59;2.60;;;0.90;;
74401;SDS011;62837;51.082;13.744;2023-05-10T01:06:30;1.60;;;0.90;;
74401;SDS011;62837;51.082;13.744;2023-05-10T01:09:01;2.30;;;0.90;;
74401;SDS011;62837;51.082;13.744;2023-05-10T01:11:32;1.40;;;0.80;;
74401;SDS011;62837;51.082;13.744;2023-05-10T01:14:03;1.30;;;0.70;;
74401;SDS011;62837;51.082;13.744;2023-05-10T01:16:35;1.90;;;0.70;;
74401;SDS011;62837;51.082;13.744;2023-05-10T01:19:22;2.40;;;0.90;;
74401;SDS011;62837;51.082;13.744;2023-05-10T01:21:57;2.00;;;1.20;;
74401;SDS011;62837;51.082;13.744;2023-05-10T01:24:55;1.20;;;0.60;;
74401;SDS011;62837;51.082;13.744;2023-05-10T01:27:47;2.70;;;1.10;;
74401;SDS011;62837;51.082;13.744;2023-05-10T01:30:39;4.20;;;1.20;;
74401;SDS011;62837;51.082;13.744;2023-05-10T01:33:28;2.00;;;0.80;;
74401;SDS011;62837;51.082;13.744;2023-05-10T01:36:05;3.90;;;1.00;;
74401;SDS011;62837;51.082;13.744;2023-05-10T01:38:55;1.30;;;0.90;;
74401;SDS011;62837;51.082;13.744;2023-05-10T01:41:33;1.90;;;0.60;;
74401;SDS011;62837;51.082;13.744;2023-05-10T01:44:12;1.20;;;0.70;;
74401;SDS011;62837;51.082;13.744;2023-05-10T01:46:48;2.30;;;0.80;;
74401;SDS011;62837;51.082;13.744;2023-05-10T01:49:27;1.40;;;0.90;;
74401;SDS011;62837;51.082;13.744;2023-05-10T01:52:04;2.30;;;0.70;;
74401;SDS011;62837;51.082;13.744;2023-05-10T01:54:38;1.40;;;1.00;;
74401;SDS011;62837;51.082;13.744;2023-05-10T01:57:15;1.40;;;0.80;;
74401;SDS011;62837;51.082;13.744;2023-05-10T01:59:49;3.00;;;1.10;;
74401;SDS011;62837;51.082;13.744;2023-05-10T02:02:21;6.20;;;0.80;;
74401;SDS011;62837;51.082;13.744;2023-05-10T02:07:25;2.50;;;0.60;;
74401;SDS011;62837;51.082;13.744;2023-05-10T02:09:57;1.80;;;1.20;;
74401;SDS011;62837;51.082;13.744;2023-05-10T02:12:29;2.10;;;0.60;;
74401;SDS011;62837;51.082;13.744;2023-05-10T02:15:05;3.70;;;1.10;;
74401;SDS011;62837;51.082;13.744;2023-05-10T02:17:37;1.90;;;0.80;;
74401;SDS011;62837;51.082;13.744;2023-05-10T02:20:11;1.90;;;0.80;;
74401;SDS011;62837;51.082;13.744;2023-05-10T02:22:45;2.20;;;0.80;;
74401;SDS011;62837;51.082;13.744;2023-05-10T02:25:18;2.50;;;0.70;;
74401;SDS011;62837;51.082;13.744;2023-05-10T02:27:50;1.30;;;0.70;;
74401;SDS011;62837;51.082;13.744;2023-05-10T02:32:53;2.90;;;0.70;;
74401;SDS011;62837;51.082;13.744;2023-05-10T02:35:25;1.20;;;0.80;;
74401;SDS011;62837;51.082;13.744;2023-05-10T02:37:57;3.50;;;0.60;;
74401;SDS011;62837;51.082;13.744;2023-05-10T02:40:30;1.60;;;1.10;;
74401;SDS011;62837;51.082;13.744;2023-05-10T02:43:04;2.10;;;1.10;;
74401;SDS011;62837;51.082;13.744;2023-05-10T02:45:38;3.20;;;0.90;;
74401;SDS011;62837;51.082;13.744;2023-05-10T02:48:10;1.20;;;0.50;;
74401;SDS011;62837;51.082;13.744;2023-05-10T02:50:42;1.90;;;0.60;;
74401;SDS011;62837;51.082;13.744;2023-05-10T02:53:21;2.30;;;0.70;;
74401;SDS011;62837;51.082;13.744;2023-05-10T02:56:00;1.80;;;0.70;;
74401;SDS011;62837;51.082;13.744;2023-05-10T02:58:34;1.20;;;0.70;;
74401;SDS011;62837;51.082;13.744;2023-05-10T03:01:05;3.50;;;0.70;;
74401;SDS011;62837;51.082;13.744;2023-05-10T03:03:36;2.30;;;1.40;;
74401;SDS011;62837;51.082;13.744;2023-05-10T03:06:08;1.50;;;0.70;;
74401;SDS011;62837;51.082;13.744;2023-05-10T03:08:39;1.40;;;0.50;;
74401;SDS011;62837;51.082;13.744;2023-05-10T03:11:16;1.40;;;0.70;;
74401;SDS011;62837;51.082;13.744;2023-05-10T03:14:04;1.40;;;0.50;;
74401;SDS011;62837;51.082;13.744;2023-05-10T03:16:41;1.90;;;0.90;;
74401;SDS011;62837;51.082;13.744;2023-05-10T03:19:16;2.60;;;0.50;;
74401;SDS011;62837;51.082;13.744;2023-05-10T03:21:52;2.90;;;0.90;;
74401;SDS011;62837;51.082;13.744;2023-05-10T03:24:28;1.40;;;0.60;;
74401;SDS011;62837;51.082;13.744;2023-05-10T03:27:02;1.70;;;0.60;;
74401;SDS011;62837;51.082;13.744;2023-05-10T03:29:35;3.80;;;0.70;;
74401;SDS011;62837;51.082;13.744;2023-05-10T03:32:07;1.90;;;0.60;;
74401;SDS011;62837;51.082;13.744;2023-05-10T03:34:42;1.20;;;0.80;;
74401;SDS011;62837;51.082;13.744;2023-05-10T03:37:13;1.10;;;0.70;;
74401;SDS011;62837;51.082;13.744;2023-05-10T03:39:43;1.50;;;0.80;;
74401;SDS011;62837;51.082;13.744;2023-05-10T03:42:14;1.20;;;0.80;;
74401;SDS011;62837;51.082;13.744;2023-05-10T03:44:45;1.60;;;1.10;;
74401;SDS011;62837;51.082;13.744;2023-05-10T03:47:17;1.40;;;1.00;;
74401;SDS011;62837;51.082;13.744;2023-05-10T03:49:48;0.60;;;0.30;;
74401;SDS011;62837;51.082;13.744;2023-05-10T03:52:19;1.60;;;0.80;;
74401;SDS011;62837;51.082;13.744;2023-05-10T03:54:50;2.80;;;0.60;;
74401;SDS011;62837;51.082;13.744;2023-05-10T03:57:20;3.90;;;0.80;;
74401;SDS011;62837;51.082;13.744;2023-05-10T03:59:51;1.40;;;0.70;;
74401;SDS011;62837;51.082;13.744;2023-05-10T04:02:23;2.60;;;0.50;;
74401;SDS011;62837;51.082;13.744;2023-05-10T04:04:54;4.70;;;0.80;;
74401;SDS011;62837;51.082;13.744;2023-05-10T04:07:25;2.00;;;0.80;;
74401;SDS011;62837;51.082;13.744;2023-05-10T04:09:57;1.20;;;0.70;;
74401;SDS011;62837;51.082;13.744;2023-05-10T04:12:27;2.40;;;1.60;;
74401;SDS011;62837;51.082;13.744;2023-05-10T04:14:58;1.10;;;0.50;;
74401;SDS011;62837;51.082;13.744;2023-05-10T04:17:29;1.10;;;0.40;;
74401;SDS011;62837;51.082;13.744;2023-05-10T04:20:00;1.80;;;1.00;;
74401;SDS011;62837;51.082;13.744;2023-05-10T04:22:31;1.20;;;0.40;;
74401;SDS011;62837;51.082;13.744;2023-05-10T04:25:03;1.30;;;0.50;;
74401;SDS011;62837;51.082;13.744;2023-05-10T04:27:34;3.40;;;0.60;;
74401;SDS011;62837;51.082;13.744;2023-05-10T04:30:06;3.00;;;0.80;;
74401;SDS011;62837;51.082;13.744;2023-05-10T04:32:38;2.40;;;0.80;;
74401;SDS011;62837;51.082;13.744;2023-05-10T04:35:09;1.60;;;0.60;;
74401;SDS011;62837;51.082;13.744;2023-05-10T04:37:42;1.10;;;0.50;;
74401;SDS011;62837;51.082;13.744;2023-05-10T04:40:13;0.90;;;0.50;;
74401;SDS011;62837;51.082;13.744;2023-05-10T04:42:44;3.70;;;0.80;;
74401;SDS011;62837;51.082;13.744;2023-05-10T04:45:15;1.30;;;0.80;;
74401;SDS011;62837;51.082;13.744;2023-05-10T04:47:46;1.90;;;0.50;;
74401;SDS011;62837;51.082;13.744;2023-05-10T04:50:17;1.40;;;1.00;;
74401;SDS011;62837;51.082;13.744;2023-05-10T04:52:47;3.50;;;1.50;;
74401;SDS011;62837;51.082;13.744;2023-05-10T04:55:20;1.70;;;0.60;;
74401;SDS011;62837;51.082;13.744;2023-05-10T04:57:50;2.00;;;0.60;;
74401;SDS011;62837;51.082;13.744;2023-05-10T05:00:22;2.00;;;0.90;;
74401;SDS011;62837;51.082;13.744;2023-05-10T05:02:53;1.90;;;0.90;;
74401;SDS011;62837;51.082;13.744;2023-05-10T05:05:24;1.80;;;0.70;;
74401;SDS011;62837;51.082;13.744;2023-05-10T05:07:55;1.10;;;0.60;;
74401;SDS011;62837;51.082;13.744;2023-05-10T05:10:26;2.20;;;0.80;;
74401;SDS011;62837;51.082;13.744;2023-05-10T05:12:56;2.60;;;0.80;;
74401;SDS011;62837;51.082;13.744;2023-05-10T05:15:27;1.90;;;0.70;;
74401;SDS011;62837;51.082;13.744;2023-05-10T05:17:58;3.50;;;0.90;;
74401;SDS011;62837;51.082;13.744;2023-05-10T05:20:31;1.80;;;0.70;;
74401;SDS011;62837;51.082;13.744;2023-05-10T05:23:02;2.70;;;0.60;;
74401;SDS011;62837;51.082;13.744;2023-05-10T05:25:33;2.30;;;0.80;;
74401;SDS011;62837;51.082;13.744;2023-05-10T05:28:04;2.40;;;0.70;;
74401;SDS011;62837;51.082;13.744;2023-05-10T05:30:35;4.90;;;1.00;;
74401;SDS011;62837;51.082;13.744;2023-05-10T05:33:05;1.50;;;0.80;;
74401;SDS011;62837;51.082;13.744;2023-05-10T05:35:36;1.40;;;1.10;;
74401;SDS011;62837;51.082;13.744;2023-05-10T05:38:07;1.70;;;0.90;;
74401;SDS011;62837;51.082;13.744;2023-05-10T05:40:38;2.00;;;1.10;;
74401;SDS011;62837;51.082;13.744;2023-05-10T05:43:08;1.70;;;0.80;;
74401;SDS011;62837;51.082;13.744;2023-05-10T05:45:39;2.00;;;0.70;;
74401;SDS011;62837;51.082;13.744;2023-05-10T05:48:10;2.80;;;0.90;;
74401;SDS011;62837;51.082;13.744;2023-05-10T05:50:40;2.60;;;0.80;;
74401;SDS011;62837;51.082;13.744;2023-05-10T05:53:11;1.90;;;0.80;;
74401;SDS011;62837;51.082;13.744;2023-05-10T05:55:45;3.30;;;0.60;;
74401;SDS011;62837;51.082;13.744;2023-05-10T05:58:22;3.70;;;0.80;;
74401;SDS011;62837;51.082;13.744;2023-05-10T06:00:54;3.40;;;0.80;;
74401;SDS011;62837;51.082;13.744;2023-05-10T06:03:25;2.50;;;1.10;;
74401;SDS011;62837;51.082;13.744;2023-05-10T06:05:55;1.10;;;0.60;;
74401;SDS011;62837;51.082;13.744;2023-05-10T06:08:26;1.70;;;0.70;;
74401;SDS011;62837;51.082;13.744;2023-05-10T06:10:57;4.80;;;0.80;;
74401;SDS011;62837;51.082;13.744;2023-05-10T06:13:27;1.50;;;0.60;;
74401;SDS011;62837;51.082;13.744;2023-05-10T06:16:00;1.30;;;0.80;;
74401;SDS011;62837;51.082;13.744;2023-05-10T06:18:31;3.60;;;1.30;;
74401;SDS011;62837;51.082;13.744;2023-05-10T06:21:02;1.50;;;0.70;;
74401;SDS011;62837;51.082;13.744;2023-05-10T06:23:33;1.90;;;0.70;;
74401;SDS011;62837;51.082;13.744;2023-05-10T06:26:04;1.70;;;0.80;;
74401;SDS011;62837;51.082;13.744;2023-05-10T06:28:35;2.00;;;0.70;;
74401;SDS011;62837;51.082;13.744;2023-05-10T06:31:06;5.60;;;0.80;;
74401;SDS011;62837;51.082;13.744;2023-05-10T06:33:39;2.30;;;1.10;;
74401;SDS011;62837;51.082;13.744;2023-05-10T06:36:10;3.00;;;0.60;;
74401;SDS011;62837;51.082;13.744;2023-05-10T06:38:41;3.10;;;1.10;;
74401;SDS011;62837;51.082;13.744;2023-05-10T06:41:11;2.40;;;0.90;;
74401;SDS011;62837;51.082;13.744;2023-05-10T06:43:42;1.60;;;0.50;;
74401;SDS011;62837;51.082;13.744;2023-05-10T06:46:13;3.50;;;0.70;;
74401;SDS011;62837;51.082;13.744;2023-05-10T06:48:44;1.50;;;1.00;;
74401;SDS011;62837;51.082;13.744;2023-05-10T06:51:14;4.60;;;0.90;;
74401;SDS011;62837;51.082;13.744;2023-05-10T06:53:46;5.90;;;0.90;;
74401;SDS011;62837;51.082;13.744;2023-05-10T06:56:16;1.30;;;0.70;;
74401;SDS011;62837;51.082;13.744;2023-05-10T06:58:49;2.60;;;0.90;;
74401;SDS011;62837;51.082;13.744;2023-05-10T07:01:20;3.10;;;0.80;;
74401;SDS011;62837;51.082;13.744;2023-05-10T07:03:51;1.70;;;0.80;;
74401;SDS011;62837;51.082;13.744;2023-05-10T07:06:22;1.20;;;0.80;;
74401;SDS011;62837;51.082;13.744;2023-05-10T07:09:00;3.30;;;0.80;;
74401;SDS011;62837;51.082;13.744;2023-05-10T07:11:31;3.50;;;0.90;;
74401;SDS011;62837;51.082;13.744;2023-05-10T07:14:02;2.40;;;0.50;;
74401;SDS011;62837;51.082;13.744;2023-05-10T07:16:32;2.60;;;0.90;;
74401;SDS011;62837;51.082;13.744;2023-05-10T07:19:04;2.70;;;1.00;;
74401;SDS011;62837;51.082;13.744;2023-05-10T07:21:34;2.00;;;0.80;;
74401;SDS011;62837;51.082;13.744;2023-05-10T07:24:08;2.50;;;0.80;;
74401;SDS011;62837;51.082;13.744;2023-05-10T07:26:38;1.40;;;0.80;;
74401;SDS011;62837;51.082;13.744;2023-05-10T07:29:09;1.60;;;0.80;;
74401;SDS011;62837;51.082;13.744;2023-05-10T07:31:40;2.20;;;0.70;;
74401;SDS011;62837;51.082;13.744;2023-05-10T07:34:11;4.20;;;1.00;;
74401;SDS011;62837;51.082;13.744;2023-05-10T07:36:42;1.60;;;0.70;;
74401;SDS011;62837;51.082;13.744;2023-05-10T07:39:12;1.80;;;0.80;;
74401;SDS011;62837;51.082;13.744;2023-05-10T07:41:54;2.10;;;1.10;;
74401;SDS011;62837;51.082;13.744;2023-05-10T07:44:24;3.00;;;0.70;;
74401;SDS011;62837;51.082;13.744;2023-05-10T07:46:55;4.80;;;1.00;;
74401;SDS011;62837;51.082;13.744;2023-05-10T07:49:26;2.50;;;0.90;;
74401;SDS011;62837;51.082;13.744;2023-05-10T07:51:56;3.20;;;1.10;;
74401;SDS011;62837;51.082;13.744;2023-05-10T07:54:27;2.20;;;1.10;;
74401;SDS011;62837;51.082;13.744;2023-05-10T07:56:59;3.40;;;1.10;;
74401;SDS011;62837;51.082;13.744;2023-05-10T07:59:30;2.90;;;0.70;;
74401;SDS011;62837;51.082;13.744;2023-05-10T08:02:01;2.90;;;1.00;;
74401;SDS011;62837;51.082;13.744;2023-05-10T08:04:31;1.90;;;1.00;;
74401;SDS011;62837;51.082;13.744;2023-05-10T08:07:02;1.80;;;0.70;;
74401;SDS011;62837;51.082;13.744;2023-05-10T08:09:33;3.00;;;0.90;;
74401;SDS011;62837;51.082;13.744;2023-05-10T08:12:05;2.90;;;0.70;;
74401;SDS011;62837;51.082;13.744;2023-05-10T08:14:36;4.10;;;1.20;;
74401;SDS011;62837;51.082;13.744;2023-05-10T08:17:07;2.00;;;1.10;;
74401;SDS011;62837;51.082;13.744;2023-05-10T08:19:37;3.00;;;1.20;;
74401;SDS011;62837;51.082;13.744;2023-05-10T08:22:08;1.30;;;0.70;;
74401;SDS011;62837;51.082;13.744;2023-05-10T08:24:39;4.00;;;1.40;;
74401;SDS011;62837;51.082;13.744;2023-05-10T08:27:09;2.70;;;1.00;;
74401;SDS011;62837;51.082;13.744;2023-05-10T08:29:40;2.90;;;1.00;;
74401;SDS011;62837;51.082;13.744;2023-05-10T08:32:17;1.80;;;1.00;;
74401;SDS011;62837;51.082;13.744;2023-05-10T08:34:48;2.30;;;0.90;;
74401;SDS011;62837;51.082;13.744;2023-05-10T08:37:18;3.00;;;1.40;;
74401;SDS011;62837;51.082;13.744;2023-05-10T08:39:49;3.20;;;1.10;;
74401;SDS011;62837;51.082;13.744;2023-05-10T08:42:20;3.30;;;1.40;;
74401;SDS011;62837;51.082;13.744;2023-05-10T08:44:54;1.70;;;1.00;;
74401;SDS011;62837;51.082;13.744;2023-05-10T08:47:27;3.50;;;1.00;;
74401;SDS011;62837;51.082;13.744;2023-05-10T08:49:58;1.50;;;1.00;;
74401;SDS011;62837;51.082;13.744;2023-05-10T08:52:31;4.10;;;1.70;;
74401;SDS011;62837;51.082;13.744;2023-05-10T08:55:08;4.00;;;1.20;;
74401;SDS011;62837;51.082;13.744;2023-05-10T09:00:09;1.70;;;0.80;;
74401;SDS011;62837;51.082;13.744;2023-05-10T09:02:42;3.70;;;1.30;;
74401;SDS011;62837;51.082;13.744;2023-05-10T09:05:13;2.20;;;1.30;;
74401;SDS011;62837;51.082;13.744;2023-05-10T09:07:46;4.50;;;1.20;;
74401;SDS011;62837;51.082;13.744;2023-05-10T09:10:16;3.00;;;1.80;;
74401;SDS011;62837;51.082;13.744;2023-05-10T09:12:48;5.10;;;0.90;;
74401;SDS011;62837;51.082;13.744;2023-05-10T09:15:20;2.90;;;1.50;;
74401;SDS011;62837;51.082;13.744;2023-05-10T09:17:51;3.20;;;1.50;;
74401;SDS011;62837;51.082;13.744;2023-05-10T09:20:23;3.30;;;1.40;;
74401;SDS011;62837;51.082;13.744;2023-05-10T09:22:54;4.30;;;0.80;;
74401;SDS011;62837;51.082;13.744;2023-05-10T09:25:25;4.20;;;1.50;;
74401;SDS011;62837;51.082;13.744;2023-05-10T09:27:56;3.40;;;1.30;;
74401;SDS011;62837;51.082;13.744;2023-05-10T09:30:28;2.50;;;1.20;;
74401;SDS011;62837;51.082;13.744;2023-05-10T09:32:59;4.20;;;1.70;;
74401;SDS011;62837;51.082;13.744;2023-05-10T09:35:31;3.10;;;2.40;;
74401;SDS011;62837;51.082;13.744;2023-05-10T09:38:04;3.60;;;1.40;;
74401;SDS011;62837;51.082;13.744;2023-05-10T09:40:34;1.90;;;1.00;;
74401;SDS011;62837;51.082;13.744;2023-05-10T09:43:06;3.00;;;1.40;;
74401;SDS011;62837;51.082;13.744;2023-05-10T09:45:38;3.40;;;1.20;;
74401;SDS011;62837;51.082;13.744;2023-05-10T09:48:11;3.40;;;1.40;;
74401;SDS011;62837;51.082;13.744;2023-05-10T09:50:42;2.60;;;1.30;;
74401;SDS011;62837;51.082;13.744;2023-05-10T09:53:13;4.30;;;1.40;;
74401;SDS011;62837;51.082;13.744;2023-05-10T09:55:45;5.30;;;1.30;;
74401;SDS011;62837;51.082;13.744;2023-05-10T09:58:18;5.20;;;1.60;;
74401;SDS011;62837;51.082;13.744;2023-05-10T10:00:48;3.00;;;1.30;;
74401;SDS011;62837;51.082;13.744;2023-05-10T10:03:20;3.70;;;1.40;;
74401;SDS011;62837;51.082;13.744;2023-05-10T10:08:23;2.10;;;1.50;;
74401;SDS011;62837;51.082;13.744;2023-05-10T10:10:55;3.50;;;1.80;;
74401;SDS011;62837;51.082;13.744;2023-05-10T10:13:25;2.50;;;1.20;;
74401;SDS011;62837;51.082;13.744;2023-05-10T10:15:56;4.20;;;1.80;;
74401;SDS011;62837;51.082;13.744;2023-05-10T10:18:27;3.90;;;1.70;;
74401;SDS011;62837;51.082;13.744;2023-05-10T10:23:28;2.00;;;1.20;;
74401;SDS011;62837;51.082;13.744;2023-05-10T10:25:59;2.80;;;1.20;;
74401;SDS011;62837;51.082;13.744;2023-05-10T10:28:44;2.80;;;1.90;;
74401;SDS011;62837;51.082;13.744;2023-05-10T10:33:59;2.90;;;1.20;;
74401;SDS011;62837;51.082;13.744;2023-05-10T10:36:34;4.00;;;1.60;;
74401;SDS011;62837;51.082;13.744;2023-05-10T10:39:11;3.10;;;1.50;;
74401;SDS011;62837;51.082;13.744;2023-05-10T10:41:50;4.50;;;1.40;;
74401;SDS011;62837;51.082;13.744;2023-05-10T10:44:32;3.20;;;1.50;;
74401;SDS011;62837;51.082;13.744;2023-05-10T10:47:06;4.40;;;1.20;;
74401;SDS011;62837;51.082;13.744;2023-05-10T10:50:02;2.60;;;1.50;;
74401;SDS011;62837;51.082;13.744;2023-05-10T10:52:34;1.90;;;1.20;;
74401;SDS011;62837;51.082;13.744;2023-05-10T10:55:07;3.90;;;1.50;;
74401;SDS011;62837;51.082;13.744;2023-05-10T10:57:49;2.50;;;1.50;;
74401;SDS011;62837;51.082;13.744;2023-05-10T11:00:29;1.60;;;1.10;;
74401;SDS011;62837;51.082;13.744;2023-05-10T11:03:03;4.70;;;1.40;;
74401;SDS011;62837;51.082;13.744;2023-05-10T11:05:36;3.60;;;1.50;;
74401;SDS011;62837;51.082;13.744;2023-05-10T11:08:12;2.00;;;1.50;;
74401;SDS011;62837;51.082;13.744;2023-05-10T11:10:52;2.60;;;1.90;;
74401;SDS011;62837;51.082;13.744;2023-05-10T11:13:37;3.10;;;1.30;;
74401;SDS011;62837;51.082;13.744;2023-05-10T11:19:00;2.70;;;1.90;;
74401;SDS011;62837;51.082;13.744;2023-05-10T11:21:32;6.10;;;1.80;;
74401;SDS011;62837;51.082;13.744;2023-05-10T11:24:14;3.50;;;1.30;;
74401;SDS011;62837;51.082;13.744;2023-05-10T11:26:49;3.60;;;1.20;;
74401;SDS011;62837;51.082;13.744;2023-05-10T11:29:20;3.50;;;1.60;;
74401;SDS011;62837;51.082;13.744;2023-05-10T11:31:51;3.10;;;1.50;;
74401;SDS011;62837;51.082;13.744;2023-05-10T11:34:26;2.70;;;1.10;;
74401;SDS011;62837;51.082;13.744;2023-05-10T11:36:59;2.00;;;1.50;;
74401;SDS011;62837;51.082;13.744;2023-05-10T11:39:30;2.60;;;1.70;;
74401;SDS011;62837;51.082;13.744;2023-05-10T11:42:01;2.30;;;1.20;;
74401;SDS011;62837;51.082;13.744;2023-05-10T11:44:32;3.00;;;1.60;;
74401;SDS011;62837;51.082;13.744;2023-05-10T11:47:03;2.80;;;1.60;;
74401;SDS011;62837;51.082;13.744;2023-05-10T11:49:34;2.50;;;1.20;;
74401;SDS011;62837;51.082;13.744;2023-05-10T11:52:05;2.50;;;1.00;;
74401;SDS011;62837;51.082;13.744;2023-05-10T11:54:36;5.80;;;1.70;;
74401;SDS011;62837;51.082;13.744;2023-05-10T11:57:13;3.70;;;1.20;;
74401;SDS011;62837;51.082;13.744;2023-05-10T11:59:44;3.70;;;1.50;;
74401;SDS011;62837;51.082;13.744;2023-05-10T12:02:14;2.30;;;1.10;;
74401;SDS011;62837;51.082;13.744;2023-05-10T12:04:46;2.80;;;1.60;;
74401;SDS011;62837;51.082;13.744;2023-05-10T12:07:17;5.80;;;1.70;;
74401;SDS011;62837;51.082;13.744;2023-05-10T12:12:43;3.00;;;1.90;;
74401;SDS011;62837;51.082;13.744;2023-05-10T12:15:18;8.00;;;1.50;;
74401;SDS011;62837;51.082;13.744;2023-05-10T12:17:51;4.40;;;1.40;;
74401;SDS011;62837;51.082;13.744;2023-05-10T12:20:23;2.20;;;1.30;;
74401;SDS011;62837;51.082;13.744;2023-05-10T12:22:56;5.20;;;1.50;;
74401;SDS011;62837;51.082;13.744;2023-05-10T12:25:31;2.60;;;1.40;;
74401;SDS011;62837;51.082;13.744;2023-05-10T12:28:04;3.20;;;1.40;;
74401;SDS011;62837;51.082;13.744;2023-05-10T12:30:36;2.30;;;1.30;;
74401;SDS011;62837;51.082;13.744;2023-05-10T12:33:10;4.30;;;1.50;;
74401;SDS011;62837;51.082;13.744;2023-05-10T12:35:45;2.50;;;1.30;;
74401;SDS011;62837;51.082;13.744;2023-05-10T12:38:26;1.90;;;1.50;;
74401;SDS011;62837;51.082;13.744;2023-05-10T12:40:59;6.60;;;1.70;;
74401;SDS011;62837;51.082;13.744;2023-05-10T12:43:31;3.90;;;1.60;;
74401;SDS011;62837;51.082;13.744;2023-05-10T12:46:07;2.80;;;1.30;;
74401;SDS011;62837;51.082;13.744;2023-05-10T12:48:39;2.30;;;1.60;;
74401;SDS011;62837;51.082;13.744;2023-05-10T12:51:11;2.00;;;1.40;;
74401;SDS011;62837;51.082;13.744;2023-05-10T12:53:45;6.20;;;1.50;;
74401;SDS011;62837;51.082;13.744;2023-05-10T12:56:16;4.80;;;1.40;;
74401;SDS011;62837;51.082;13.744;2023-05-10T12:58:47;3.40;;;1.40;;
74401;SDS011;62837;51.082;13.744;2023-05-10T13:01:18;5.00;;;1.40;;
74401;SDS011;62837;51.082;13.744;2023-05-10T13:03:49;3.90;;;1.60;;
74401;SDS011;62837;51.082;13.744;2023-05-10T13:06:20;2.10;;;1.50;;
74401;SDS011;62837;51.082;13.744;2023-05-10T13:08:51;2.50;;;1.60;;
74401;SDS011;62837;51.082;13.744;2023-05-10T13:11:22;4.70;;;1.40;;
74401;SDS011;62837;51.082;13.744;2023-05-10T13:13:52;4.30;;;1.90;;
74401;SDS011;62837;51.082;13.744;2023-05-10T13:16:23;6.40;;;1.90;;
74401;SDS011;62837;51.082;13.744;2023-05-10T13:18:54;3.50;;;1.80;;
74401;SDS011;62837;51.082;13.744;2023-05-10T13:21:26;3.90;;;1.60;;
74401;SDS011;62837;51.082;13.744;2023-05-10T13:23:57;3.30;;;1.40;;
74401;SDS011;62837;51.082;13.744;2023-05-10T13:26:28;4.10;;;1.60;;
74401;SDS011;62837;51.082;13.744;2023-05-10T13:28:58;3.40;;;1.50;;
74401;SDS011;62837;51.082;13.744;2023-05-10T13:31:29;2.10;;;1.40;;
74401;SDS011;62837;51.082;13.744;2023-05-10T13:34:00;5.50;;;1.70;;
74401;SDS011;62837;51.082;13.744;2023-05-10T13:36:31;2.90;;;1.60;;
74401;SDS011;62837;51.082;13.744;2023-05-10T13:39:01;4.10;;;1.70;;
74401;SDS011;62837;51.082;13.744;2023-05-10T13:41:33;4.60;;;1.40;;
74401;SDS011;62837;51.082;13.744;2023-05-10T13:44:04;2.50;;;1.60;;
74401;SDS011;62837;51.082;13.744;2023-05-10T13:46:35;2.70;;;1.60;;
74401;SDS011;62837;51.082;13.744;2023-05-10T13:49:06;2.40;;;1.60;;
74401;SDS011;62837;51.082;13.744;2023-05-10T13:51:37;4.70;;;1.10;;
74401;SDS011;62837;51.082;13.744;2023-05-10T13:54:08;5.60;;;1.70;;
74401;SDS011;62837;51.082;13.744;2023-05-10T13:56:41;6.30;;;3.40;;
74401;SDS011;62837;51.082;13.744;2023-05-10T13:59:12;4.70;;;1.60;;
74401;SDS011;62837;51.082;13.744;2023-05-10T14:01:44;3.30;;;1.70;;
74401;SDS011;62837;51.082;13.744;2023-05-10T14:04:15;2.00;;;1.30;;
74401;SDS011;62837;51.082;13.744;2023-05-10T14:06:45;3.60;;;1.40;;
74401;SDS011;62837;51.082;13.744;2023-05-10T14:09:16;5.10;;;1.70;;
74401;SDS011;62837;51.082;13.744;2023-05-10T14:11:47;3.90;;;1.80;;
74401;SDS011;62837;51.082;13.744;2023-05-10T14:14:18;3.90;;;1.50;;
74401;SDS011;62837;51.082;13.744;2023-05-10T14:16:49;3.80;;;1.80;;
74401;SDS011;62837;51.082;13.744;2023-05-10T14:19:20;4.10;;;1.70;;
74401;SDS011;62837;51.082;13.744;2023-05-10T14:21:50;5.50;;;1.60;;
74401;SDS011;62837;51.082;13.744;2023-05-10T14:24:21;2.90;;;1.70;;
74401;SDS011;62837;51.082;13.744;2023-05-10T14:26:52;5.90;;;1.30;;
74401;SDS011;62837;51.082;13.744;2023-05-10T14:29:23;3.20;;;2.00;;
74401;SDS011;62837;51.082;13.744;2023-05-10T14:31:53;3.20;;;1.30;;
74401;SDS011;62837;51.082;13.744;2023-05-10T14:34:24;4.10;;;1.70;;
74401;SDS011;62837;51.082;13.744;2023-05-10T14:36:55;2.90;;;1.90;;
74401;SDS011;62837;51.082;13.744;2023-05-10T14:39:26;3.50;;;1.30;;
74401;SDS011;62837;51.082;13.744;2023-05-10T14:41:57;2.50;;;1.20;;
74401;SDS011;62837;51.082;13.744;2023-05-10T14:44:28;2.50;;;1.20;;
74401;SDS011;62837;51.082;13.744;2023-05-10T14:46:59;3.60;;;1.50;;
74401;SDS011;62837;51.082;13.744;2023-05-10T14:49:30;2.50;;;1.30;;
74401;SDS011;62837;51.082;13.744;2023-05-10T14:52:01;4.40;;;1.40;;
74401;SDS011;62837;51.082;13.744;2023-05-10T14:54:33;5.80;;;1.10;;
74401;SDS011;62837;51.082;13.744;2023-05-10T14:57:04;3.90;;;1.40;;
74401;SDS011;62837;51.082;13.744;2023-05-10T14:59:36;4.80;;;1.30;;
74401;SDS011;62837;51.082;13.744;2023-05-10T15:02:07;7.20;;;1.80;;
74401;SDS011;62837;51.082;13.744;2023-05-10T15:04:40;3.60;;;1.20;;
74401;SDS011;62837;51.082;13.744;2023-05-10T15:07:11;3.50;;;1.70;;
74401;SDS011;62837;51.082;13.744;2023-05-10T15:09:44;7.40;;;1.70;;
74401;SDS011;62837;51.082;13.744;2023-05-10T15:12:15;6.40;;;1.40;;
74401;SDS011;62837;51.082;13.744;2023-05-10T15:14:45;3.50;;;1.90;;
74401;SDS011;62837;51.082;13.744;2023-05-10T15:17:16;4.80;;;1.40;;
74401;SDS011;62837;51.082;13.744;2023-05-10T15:19:47;2.70;;;1.30;;
74401;SDS011;62837;51.082;13.744;2023-05-10T15:22:18;7.50;;;1.60;;
74401;SDS011;62837;51.082;13.744;2023-05-10T15:24:49;2.10;;;1.50;;